Portada
METAR-TAF:

METAR-TAF

Aeroports :

Paraburdoo, Austràlia

latitud: 23-10-17S, longitud: 117-44-44E, altitud: 429 m

Observació

L'informe es va fer fa 37 minuts, a les 01:00 UTC
Vent 8 kt del Oest
Temperatura 28°C
Humitat 42%
Pressió 1010 hPa
Visibilitat 10 km o més

METAR: YPBO 010100Z AUTO 28008KT 9999 // NCD 28/14 Q1010

Hora: 09:37 (01:37 UTC)


TAF: manca

Observacions i pronòstics meteorològics de més de 4000 aeroports (METAR i TAF).

Les estacions disponibles són els punts grocs i vermells al mapa.

Posi el ratolí al punt desitjat per veure el nom de l'estació.

Feu clic per veure les observacions i els pronòstics meteorològics.

Per canviar el mapa: feu clic els botons verds amb una creu de color negre per apropar; al botó verd amb un guió per allunyar la imatge; o en les fletxes verdes per a mapes adjacents.


METAR-TAF: